sensor_id;sensor_type;location;lat;lon;timestamp;pressure;altitude;pressure_sealevel;temperature;humidity
13767;BME280;47980;48.794;9.176;2023-03-14T00:00:31;96621.22;;;11.38;100.00
13767;BME280;47980;48.794;9.176;2023-03-14T00:03:04;96640.88;;;11.30;100.00
13767;BME280;47980;48.794;9.176;2023-03-14T00:05:35;96631.25;;;11.18;100.00
13767;BME280;47980;48.794;9.176;2023-03-14T00:08:07;96620.00;;;11.28;100.00
13767;BME280;47980;48.794;9.176;2023-03-14T00:10:39;96652.91;;;11.20;100.00
13767;BME280;47980;48.794;9.176;2023-03-14T00:13:10;96634.31;;;11.20;100.00
13767;BME280;47980;48.794;9.176;2023-03-14T00:15:42;96635.84;;;11.21;100.00
13767;BME280;47980;48.794;9.176;2023-03-14T00:18:15;96633.53;;;11.16;100.00
13767;BME280;47980;48.794;9.176;2023-03-14T00:20:46;96617.69;;;11.23;100.00
13767;BME280;47980;48.794;9.176;2023-03-14T00:23:18;96617.75;;;11.30;100.00
13767;BME280;47980;48.794;9.176;2023-03-14T00:25:49;96604.03;;;11.25;100.00
13767;BME280;47980;48.794;9.176;2023-03-14T00:28:21;96605.94;;;11.24;100.00
13767;BME280;47980;48.794;9.176;2023-03-14T00:30:52;96602.50;;;11.24;100.00
13767;BME280;47980;48.794;9.176;2023-03-14T00:33:25;96605.50;;;11.19;100.00
13767;BME280;47980;48.794;9.176;2023-03-14T00:35:59;96613.81;;;11.17;100.00
13767;BME280;47980;48.794;9.176;2023-03-14T00:38:32;96610.81;;;11.19;100.00
13767;BME280;47980;48.794;9.176;2023-03-14T00:41:05;96619.81;;;11.11;100.00
13767;BME280;47980;48.794;9.176;2023-03-14T00:43:37;96616.16;;;11.22;100.00
13767;BME280;47980;48.794;9.176;2023-03-14T00:46:09;96613.53;;;11.26;100.00
13767;BME280;47980;48.794;9.176;2023-03-14T00:48:42;96607.09;;;11.27;100.00
13767;BME280;47980;48.794;9.176;2023-03-14T00:51:15;96605.53;;;11.22;100.00
13767;BME280;47980;48.794;9.176;2023-03-14T00:53:47;96612.75;;;11.25;100.00
13767;BME280;47980;48.794;9.176;2023-03-14T00:56:18;96617.66;;;11.20;100.00
13767;BME280;47980;48.794;9.176;2023-03-14T00:58:53;96615.72;;;11.17;100.00
13767;BME280;47980;48.794;9.176;2023-03-14T01:01:24;96625.69;;;11.27;100.00
13767;BME280;47980;48.794;9.176;2023-03-14T01:03:57;96628.81;;;11.40;100.00
13767;BME280;47980;48.794;9.176;2023-03-14T01:06:29;96634.41;;;11.27;100.00
13767;BME280;47980;48.794;9.176;2023-03-14T01:09:01;96640.84;;;11.26;100.00
13767;BME280;47980;48.794;9.176;2023-03-14T01:11:34;96645.81;;;11.31;100.00
13767;BME280;47980;48.794;9.176;2023-03-14T01:14:06;96655.72;;;11.35;100.00
13767;BME280;47980;48.794;9.176;2023-03-14T01:16:37;96659.88;;;11.36;100.00
13767;BME280;47980;48.794;9.176;2023-03-14T01:19:10;96643.59;;;11.37;100.00
13767;BME280;47980;48.794;9.176;2023-03-14T01:21:41;96635.00;;;11.54;100.00
13767;BME280;47980;48.794;9.176;2023-03-14T01:24:13;96636.53;;;11.52;100.00
13767;BME280;47980;48.794;9.176;2023-03-14T01:26:45;96611.44;;;11.46;100.00
13767;BME280;47980;48.794;9.176;2023-03-14T01:29:16;96604.59;;;11.45;100.00
13767;BME280;47980;48.794;9.176;2023-03-14T01:31:48;96584.06;;;11.38;100.00
13767;BME280;47980;48.794;9.176;2023-03-14T01:34:21;96577.59;;;11.39;100.00
13767;BME280;47980;48.794;9.176;2023-03-14T01:36:52;96576.44;;;11.33;100.00
13767;BME280;47980;48.794;9.176;2023-03-14T01:39:24;96571.13;;;11.33;100.00
13767;BME280;47980;48.794;9.176;2023-03-14T01:41:55;96570.03;;;11.38;100.00
13767;BME280;47980;48.794;9.176;2023-03-14T01:44:27;96554.09;;;11.38;100.00
13767;BME280;47980;48.794;9.176;2023-03-14T01:46:58;96548.78;;;11.38;100.00
13767;BME280;47980;48.794;9.176;2023-03-14T01:49:32;96540.72;;;11.27;100.00
13767;BME280;47980;48.794;9.176;2023-03-14T01:52:09;96535.84;;;11.32;100.00
13767;BME280;47980;48.794;9.176;2023-03-14T01:54:43;96537.72;;;11.32;100.00
13767;BME280;47980;48.794;9.176;2023-03-14T01:57:17;96537.41;;;11.37;100.00
13767;BME280;47980;48.794;9.176;2023-03-14T01:59:52;96534.28;;;11.28;100.00
13767;BME280;47980;48.794;9.176;2023-03-14T02:02:26;96539.34;;;11.40;98.89
13767;BME280;47980;48.794;9.176;2023-03-14T02:05:00;96536.28;;;11.42;97.15
13767;BME280;47980;48.794;9.176;2023-03-14T02:07:36;96542.66;;;11.30;96.44
13767;BME280;47980;48.794;9.176;2023-03-14T02:10:11;96541.97;;;11.40;96.69
13767;BME280;47980;48.794;9.176;2023-03-14T02:12:43;96543.13;;;11.43;96.73
13767;BME280;47980;48.794;9.176;2023-03-14T02:15:15;96541.22;;;11.43;96.82
13767;BME280;47980;48.794;9.176;2023-03-14T02:17:47;96534.34;;;11.35;95.26
13767;BME280;47980;48.794;9.176;2023-03-14T02:20:28;96536.16;;;11.24;98.28
13767;BME280;47980;48.794;9.176;2023-03-14T02:23:02;96525.50;;;11.20;97.70
13767;BME280;47980;48.794;9.176;2023-03-14T02:25:39;96527.00;;;11.18;98.80
13767;BME280;47980;48.794;9.176;2023-03-14T02:28:14;96517.09;;;11.07;100.00
13767;BME280;47980;48.794;9.176;2023-03-14T02:30:46;96506.47;;;11.07;100.00
13767;BME280;47980;48.794;9.176;2023-03-14T02:33:19;96496.63;;;11.12;100.00
13767;BME280;47980;48.794;9.176;2023-03-14T02:35:55;96498.13;;;11.09;100.00
13767;BME280;47980;48.794;9.176;2023-03-14T02:38:31;96490.91;;;11.09;100.00
13767;BME280;47980;48.794;9.176;2023-03-14T02:41:05;96495.00;;;11.00;100.00
13767;BME280;47980;48.794;9.176;2023-03-14T02:43:38;96494.66;;;11.01;100.00
13767;BME280;47980;48.794;9.176;2023-03-14T02:46:12;96495.13;;;11.14;100.00
13767;BME280;47980;48.794;9.176;2023-03-14T02:48:47;96463.63;;;11.09;100.00
13767;BME280;47980;48.794;9.176;2023-03-14T02:51:21;96464.75;;;11.04;100.00
13767;BME280;47980;48.794;9.176;2023-03-14T02:53:54;96485.13;;;10.93;100.00
13767;BME280;47980;48.794;9.176;2023-03-14T02:56:26;96451.44;;;11.01;100.00
13767;BME280;47980;48.794;9.176;2023-03-14T02:59:02;96455.16;;;10.93;100.00
13767;BME280;47980;48.794;9.176;2023-03-14T03:01:34;96458.91;;;10.88;100.00
13767;BME280;47980;48.794;9.176;2023-03-14T03:04:05;96448.69;;;10.87;100.00
13767;BME280;47980;48.794;9.176;2023-03-14T03:06:37;96447.19;;;10.93;100.00
13767;BME280;47980;48.794;9.176;2023-03-14T03:09:09;96430.94;;;10.98;99.35
13767;BME280;47980;48.794;9.176;2023-03-14T03:11:40;96439.63;;;10.91;99.46
13767;BME280;47980;48.794;9.176;2023-03-14T03:14:13;96422.53;;;10.89;97.29
13767;BME280;47980;48.794;9.176;2023-03-14T03:16:45;96419.97;;;11.03;97.39
13767;BME280;47980;48.794;9.176;2023-03-14T03:19:16;96410.88;;;10.97;95.45
13767;BME280;47980;48.794;9.176;2023-03-14T03:21:48;96408.25;;;11.00;94.02
13767;BME280;47980;48.794;9.176;2023-03-14T03:24:20;96400.22;;;10.93;94.37
13767;BME280;47980;48.794;9.176;2023-03-14T03:26:52;96410.47;;;10.95;93.83
13767;BME280;47980;48.794;9.176;2023-03-14T03:29:25;96408.22;;;10.97;91.71
13767;BME280;47980;48.794;9.176;2023-03-14T03:31:57;96413.91;;;11.02;92.84
13767;BME280;47980;48.794;9.176;2023-03-14T03:34:28;96410.09;;;11.00;90.39
13767;BME280;47980;48.794;9.176;2023-03-14T03:37:00;96400.97;;;10.90;91.59
13767;BME280;47980;48.794;9.176;2023-03-14T03:39:32;96402.44;;;10.88;91.55
13767;BME280;47980;48.794;9.176;2023-03-14T03:42:03;96402.06;;;10.89;91.32
13767;BME280;47980;48.794;9.176;2023-03-14T03:44:36;96392.97;;;10.87;90.08
13767;BME280;47980;48.794;9.176;2023-03-14T03:47:08;96398.25;;;10.83;90.06
13767;BME280;47980;48.794;9.176;2023-03-14T03:49:39;96385.78;;;10.87;88.17
13767;BME280;47980;48.794;9.176;2023-03-14T03:52:11;96388.44;;;10.87;88.64
13767;BME280;47980;48.794;9.176;2023-03-14T03:54:42;96383.44;;;10.82;88.41
13767;BME280;47980;48.794;9.176;2023-03-14T03:57:14;96378.47;;;10.73;87.25
13767;BME280;47980;48.794;9.176;2023-03-14T03:59:47;96384.16;;;10.72;88.97
13767;BME280;47980;48.794;9.176;2023-03-14T04:02:18;96382.22;;;10.69;87.09
13767;BME280;47980;48.794;9.176;2023-03-14T04:04:50;96389.84;;;10.74;87.34
13767;BME280;47980;48.794;9.176;2023-03-14T04:07:21;96388.69;;;10.71;85.06
13767;BME280;47980;48.794;9.176;2023-03-14T04:09:53;96376.56;;;10.70;85.72
13767;BME280;47980;48.794;9.176;2023-03-14T04:12:25;96381.13;;;10.73;85.33
13767;BME280;47980;48.794;9.176;2023-03-14T04:14:57;96371.53;;;10.58;85.42
13767;BME280;47980;48.794;9.176;2023-03-14T04:17:29;96374.16;;;10.54;85.64
13767;BME280;47980;48.794;9.176;2023-03-14T04:20:00;96382.84;;;10.51;86.95
13767;BME280;47980;48.794;9.176;2023-03-14T04:22:33;96383.66;;;10.59;84.85
13767;BME280;47980;48.794;9.176;2023-03-14T04:25:06;96377.25;;;10.64;83.96
13767;BME280;47980;48.794;9.176;2023-03-14T04:27:38;96379.16;;;10.63;83.87
13767;BME280;47980;48.794;9.176;2023-03-14T04:30:11;96366.56;;;10.53;84.62
13767;BME280;47980;48.794;9.176;2023-03-14T04:32:43;96370.38;;;10.55;85.37
13767;BME280;47980;48.794;9.176;2023-03-14T04:35:14;96377.22;;;10.60;84.23
13767;BME280;47980;48.794;9.176;2023-03-14T04:37:46;96368.81;;;10.47;83.52
13767;BME280;47980;48.794;9.176;2023-03-14T04:40:19;96362.44;;;10.59;85.02
13767;BME280;47980;48.794;9.176;2023-03-14T04:42:51;96360.94;;;10.58;82.68
13767;BME280;47980;48.794;9.176;2023-03-14T04:45:24;96365.50;;;10.61;84.20
13767;BME280;47980;48.794;9.176;2023-03-14T04:47:55;96361.56;;;10.44;84.18
13767;BME280;47980;48.794;9.176;2023-03-14T04:50:27;96357.13;;;10.55;83.90
13767;BME280;47980;48.794;9.176;2023-03-14T04:52:58;96346.09;;;10.50;84.16
13767;BME280;47980;48.794;9.176;2023-03-14T04:55:31;96353.28;;;10.49;84.53
13767;BME280;47980;48.794;9.176;2023-03-14T04:58:03;96352.47;;;10.42;83.85
13767;BME280;47980;48.794;9.176;2023-03-14T05:00:36;96344.94;;;10.47;84.26
13767;BME280;47980;48.794;9.176;2023-03-14T05:03:07;96340.00;;;10.42;85.84
13767;BME280;47980;48.794;9.176;2023-03-14T05:05:39;96339.94;;;10.35;84.58
13767;BME280;47980;48.794;9.176;2023-03-14T05:08:10;96330.03;;;10.28;85.52
13767;BME280;47980;48.794;9.176;2023-03-14T05:10:42;96338.78;;;10.36;86.13
13767;BME280;47980;48.794;9.176;2023-03-14T05:13:14;96340.25;;;10.30;85.16
13767;BME280;47980;48.794;9.176;2023-03-14T05:15:46;96333.78;;;10.27;85.71
13767;BME280;47980;48.794;9.176;2023-03-14T05:18:18;96327.41;;;10.32;85.81
13767;BME280;47980;48.794;9.176;2023-03-14T05:20:50;96342.13;;;10.26;85.05
13767;BME280;47980;48.794;9.176;2023-03-14T05:23:22;96342.44;;;10.21;85.38
13767;BME280;47980;48.794;9.176;2023-03-14T05:25:53;96340.53;;;10.21;85.84
13767;BME280;47980;48.794;9.176;2023-03-14T05:28:25;96331.44;;;10.22;86.55
13767;BME280;47980;48.794;9.176;2023-03-14T05:30:58;96331.38;;;10.15;87.13
13767;BME280;47980;48.794;9.176;2023-03-14T05:33:29;96334.78;;;10.16;85.99
13767;BME280;47980;48.794;9.176;2023-03-14T05:36:01;96320.75;;;10.11;86.13
13767;BME280;47980;48.794;9.176;2023-03-14T05:38:33;96307.16;;;10.17;86.40
13767;BME280;47980;48.794;9.176;2023-03-14T05:41:05;96309.03;;;10.12;85.03
13767;BME280;47980;48.794;9.176;2023-03-14T05:43:37;96302.28;;;10.19;85.43
13767;BME280;47980;48.794;9.176;2023-03-14T05:49:37;96306.38;;;10.12;84.23
13767;BME280;47980;48.794;9.176;2023-03-14T05:52:09;96308.69;;;10.14;85.54
13767;BME280;47980;48.794;9.176;2023-03-14T05:54:41;96306.91;;;10.25;84.40
13767;BME280;47980;48.794;9.176;2023-03-14T05:57:12;96305.81;;;10.30;83.81
13767;BME280;47980;48.794;9.176;2023-03-14T05:59:44;96309.22;;;10.30;83.35
13767;BME280;47980;48.794;9.176;2023-03-14T06:02:15;96314.16;;;10.32;83.98
13767;BME280;47980;48.794;9.176;2023-03-14T06:04:48;96313.84;;;10.41;84.63
13767;BME280;47980;48.794;9.176;2023-03-14T06:07:48;96314.59;;;10.41;84.76
13767;BME280;47980;48.794;9.176;2023-03-14T06:10:19;96317.97;;;10.38;84.20
13767;BME280;47980;48.794;9.176;2023-03-14T06:12:51;96320.31;;;10.43;85.34
13767;BME280;47980;48.794;9.176;2023-03-14T06:15:23;96318.41;;;10.44;83.27
13767;BME280;47980;48.794;9.176;2023-03-14T06:17:55;96316.50;;;10.44;83.27
13767;BME280;47980;48.794;9.176;2023-03-14T06:20:28;96321.47;;;10.49;83.29
13767;BME280;47980;48.794;9.176;2023-03-14T06:22:59;96318.81;;;10.49;83.15
13767;BME280;47980;48.794;9.176;2023-03-14T06:25:31;96325.25;;;10.48;83.15
13767;BME280;47980;48.794;9.176;2023-03-14T06:28:03;96314.69;;;10.52;82.30
13767;BME280;47980;48.794;9.176;2023-03-14T06:30:35;96324.47;;;10.44;85.13
13767;BME280;47980;48.794;9.176;2023-03-14T06:33:06;96327.22;;;10.58;83.73
13767;BME280;47980;48.794;9.176;2023-03-14T06:35:39;96320.72;;;10.49;85.49
13767;BME280;47980;48.794;9.176;2023-03-14T06:38:11;96315.06;;;10.50;85.72
13767;BME280;47980;48.794;9.176;2023-03-14T06:40:42;96306.00;;;10.58;83.55
13767;BME280;47980;48.794;9.176;2023-03-14T06:43:14;96312.53;;;10.68;83.25
13767;BME280;47980;48.794;9.176;2023-03-14T06:45:45;96305.34;;;10.72;84.75
13767;BME280;47980;48.794;9.176;2023-03-14T06:48:23;96300.81;;;10.76;83.73
13767;BME280;47980;48.794;9.176;2023-03-14T06:50:56;96308.88;;;10.91;81.69
13767;BME280;47980;48.794;9.176;2023-03-14T06:53:28;96306.63;;;11.00;80.22
13767;BME280;47980;48.794;9.176;2023-03-14T06:55:59;96313.19;;;11.24;80.28
13767;BME280;47980;48.794;9.176;2023-03-14T07:05:20;96310.72;;;11.77;74.62
13767;BME280;47980;48.794;9.176;2023-03-14T07:07:53;96305.06;;;11.86;75.44
13767;BME280;47980;48.794;9.176;2023-03-14T07:10:25;96317.97;;;11.80;73.77
13767;BME280;47980;48.794;9.176;2023-03-14T07:12:57;96319.88;;;11.94;73.91
13767;BME280;47980;48.794;9.176;2023-03-14T07:15:28;96313.47;;;11.99;72.94
13767;BME280;47980;48.794;9.176;2023-03-14T07:18:00;96318.41;;;12.08;72.36
13767;BME280;47980;48.794;9.176;2023-03-14T07:20:31;96328.28;;;12.18;70.38
13767;BME280;47980;48.794;9.176;2023-03-14T07:23:04;96320.69;;;12.20;71.16
13767;BME280;47980;48.794;9.176;2023-03-14T07:25:36;96327.16;;;12.22;69.95
13767;BME280;47980;48.794;9.176;2023-03-14T07:28:08;96315.75;;;12.54;70.39
13767;BME280;47980;48.794;9.176;2023-03-14T07:30:39;96320.69;;;12.63;67.97
13767;BME280;47980;48.794;9.176;2023-03-14T07:33:11;96327.91;;;12.76;68.70
13767;BME280;47980;48.794;9.176;2023-03-14T07:35:42;96326.72;;;12.95;67.73
13767;BME280;47980;48.794;9.176;2023-03-14T07:38:16;96316.09;;;12.88;67.07
13767;BME280;47980;48.794;9.176;2023-03-14T07:40:48;96322.16;;;12.89;68.66
13767;BME280;47980;48.794;9.176;2023-03-14T07:43:19;96336.22;;;13.00;66.41
13767;BME280;47980;48.794;9.176;2023-03-14T07:45:51;96326.31;;;13.15;66.08
13767;BME280;47980;48.794;9.176;2023-03-14T07:48:23;96329.31;;;13.17;65.00
13767;BME280;47980;48.794;9.176;2023-03-14T07:50:57;96332.00;;;13.24;66.31
13767;BME280;47980;48.794;9.176;2023-03-14T07:53:30;96320.59;;;13.23;66.13
13767;BME280;47980;48.794;9.176;2023-03-14T07:56:01;96328.53;;;13.34;65.29
13767;BME280;47980;48.794;9.176;2023-03-14T07:58:33;96334.94;;;13.55;64.38
13767;BME280;47980;48.794;9.176;2023-03-14T08:01:05;96324.69;;;13.42;64.64
13767;BME280;47980;48.794;9.176;2023-03-14T08:03:36;96318.59;;;13.45;64.52
13767;BME280;47980;48.794;9.176;2023-03-14T08:06:08;96320.56;;;13.34;63.98
13767;BME280;47980;48.794;9.176;2023-03-14T08:08:41;96318.28;;;13.33;65.27
13767;BME280;47980;48.794;9.176;2023-03-14T08:11:13;96324.28;;;13.58;65.17
13767;BME280;47980;48.794;9.176;2023-03-14T08:13:44;96316.28;;;13.58;63.21
13767;BME280;47980;48.794;9.176;2023-03-14T08:16:19;96322.06;;;13.39;64.58
13767;BME280;47980;48.794;9.176;2023-03-14T08:18:51;96318.59;;;13.49;62.86
13767;BME280;47980;48.794;9.176;2023-03-14T08:21:23;96318.56;;;13.53;63.50
13767;BME280;47980;48.794;9.176;2023-03-14T08:23:56;96312.44;;;13.66;63.23
13767;BME280;47980;48.794;9.176;2023-03-14T08:26:27;96308.50;;;13.85;62.53
13767;BME280;47980;48.794;9.176;2023-03-14T08:28:59;96301.44;;;14.20;61.68
13767;BME280;47980;48.794;9.176;2023-03-14T08:31:30;96309.06;;;14.18;60.15
13767;BME280;47980;48.794;9.176;2023-03-14T08:34:03;96292.97;;;14.29;60.88
13767;BME280;47980;48.794;9.176;2023-03-14T08:36:34;96295.75;;;14.63;60.06
13767;BME280;47980;48.794;9.176;2023-03-14T08:39:08;96301.06;;;14.66;59.13
13767;BME280;47980;48.794;9.176;2023-03-14T08:41:40;96302.28;;;14.58;59.72
13767;BME280;47980;48.794;9.176;2023-03-14T08:44:13;96305.25;;;14.19;58.77
13767;BME280;47980;48.794;9.176;2023-03-14T08:46:45;96303.16;;;14.41;59.63
13767;BME280;47980;48.794;9.176;2023-03-14T08:49:17;96305.34;;;14.60;57.85
13767;BME280;47980;48.794;9.176;2023-03-14T08:51:48;96310.44;;;14.85;57.06
13767;BME280;47980;48.794;9.176;2023-03-14T08:54:21;96316.53;;;14.86;57.46
13767;BME280;47980;48.794;9.176;2023-03-14T08:56:53;96304.72;;;14.83;58.04
13767;BME280;47980;48.794;9.176;2023-03-14T08:59:24;96320.38;;;14.81;57.39
13767;BME280;47980;48.794;9.176;2023-03-14T09:01:56;96330.06;;;14.64;57.52
13767;BME280;47980;48.794;9.176;2023-03-14T09:04:28;96322.47;;;14.59;57.99
13767;BME280;47980;48.794;9.176;2023-03-14T09:06:59;96344.13;;;14.68;57.68
13767;BME280;47980;48.794;9.176;2023-03-14T09:09:32;96334.91;;;14.77;58.23
13767;BME280;47980;48.794;9.176;2023-03-14T09:12:04;96336.94;;;14.62;57.71
13767;BME280;47980;48.794;9.176;2023-03-14T09:14:36;96351.63;;;14.32;59.24
13767;BME280;47980;48.794;9.176;2023-03-14T09:17:07;96360.19;;;14.65;59.27
13767;BME280;47980;48.794;9.176;2023-03-14T09:19:39;96361.53;;;14.35;60.62
13767;BME280;47980;48.794;9.176;2023-03-14T09:22:10;96366.72;;;14.60;60.70
13767;BME280;47980;48.794;9.176;2023-03-14T09:24:43;96376.41;;;14.85;59.05
13767;BME280;47980;48.794;9.176;2023-03-14T09:27:15;96370.81;;;15.13;60.36
13767;BME280;47980;48.794;9.176;2023-03-14T09:29:46;96379.47;;;15.25;58.76
13767;BME280;47980;48.794;9.176;2023-03-14T09:32:18;96376.63;;;15.39;59.68
13767;BME280;47980;48.794;9.176;2023-03-14T09:34:50;96382.72;;;15.77;57.57
13767;BME280;47980;48.794;9.176;2023-03-14T09:37:21;96382.53;;;14.85;58.78
13767;BME280;47980;48.794;9.176;2023-03-14T09:39:54;96385.22;;;14.82;59.09
13767;BME280;47980;48.794;9.176;2023-03-14T09:42:27;96398.59;;;14.78;60.35
13767;BME280;47980;48.794;9.176;2023-03-14T09:45:02;96392.63;;;14.63;60.83
13767;BME280;47980;48.794;9.176;2023-03-14T09:47:35;96392.41;;;14.85;60.86
13767;BME280;47980;48.794;9.176;2023-03-14T09:50:11;96382.56;;;14.19;60.84
13767;BME280;47980;48.794;9.176;2023-03-14T09:52:47;96396.00;;;14.05;62.08
13767;BME280;47980;48.794;9.176;2023-03-14T09:55:21;96396.66;;;14.19;61.58
13767;BME280;47980;48.794;9.176;2023-03-14T09:57:56;96400.84;;;14.24;61.75
13767;BME280;47980;48.794;9.176;2023-03-14T10:00:30;96389.53;;;14.65;60.10
13767;BME280;47980;48.794;9.176;2023-03-14T10:03:23;96384.81;;;14.83;59.98
13767;BME280;47980;48.794;9.176;2023-03-14T10:05:56;96400.09;;;14.24;61.10
13767;BME280;47980;48.794;9.176;2023-03-14T10:08:27;96382.63;;;14.08;60.96
13767;BME280;47980;48.794;9.176;2023-03-14T10:11:00;96373.84;;;14.15;62.41
13767;BME280;47980;48.794;9.176;2023-03-14T10:13:33;96363.44;;;14.35;61.38
13767;BME280;47980;48.794;9.176;2023-03-14T10:16:05;96377.47;;;14.42;61.81
13767;BME280;47980;48.794;9.176;2023-03-14T10:18:37;96372.13;;;14.50;59.53
13767;BME280;47980;48.794;9.176;2023-03-14T10:21:20;96366.38;;;14.48;59.44
13767;BME280;47980;48.794;9.176;2023-03-14T10:23:52;96362.09;;;14.64;59.56
13767;BME280;47980;48.794;9.176;2023-03-14T10:26:27;96362.88;;;15.03;59.04
13767;BME280;47980;48.794;9.176;2023-03-14T10:29:02;96369.97;;;14.82;58.10
13767;BME280;47980;48.794;9.176;2023-03-14T10:31:46;96358.00;;;14.49;58.38
13767;BME280;47980;48.794;9.176;2023-03-14T10:34:23;96360.00;;;14.86;58.08
13767;BME280;47980;48.794;9.176;2023-03-14T10:36:57;96346.41;;;15.11;58.10
13767;BME280;47980;48.794;9.176;2023-03-14T10:39:40;96352.47;;;14.74;58.28
13767;BME280;47980;48.794;9.176;2023-03-14T10:42:19;96369.34;;;15.05;57.28
13767;BME280;47980;48.794;9.176;2023-03-14T10:44:56;96366.13;;;15.21;56.63
13767;BME280;47980;48.794;9.176;2023-03-14T10:47:29;96336.72;;;14.87;57.10
13767;BME280;47980;48.794;9.176;2023-03-14T10:50:22;96364.50;;;14.97;58.01
13767;BME280;47980;48.794;9.176;2023-03-14T10:52:55;96369.34;;;14.64;58.45
13767;BME280;47980;48.794;9.176;2023-03-14T10:55:27;96369.84;;;14.41;58.54
13767;BME280;47980;48.794;9.176;2023-03-14T10:58:00;96375.94;;;14.41;58.67
13767;BME280;47980;48.794;9.176;2023-03-14T11:00:32;96380.97;;;14.36;59.54
13767;BME280;47980;48.794;9.176;2023-03-14T11:03:09;96372.56;;;14.37;60.17
13767;BME280;47980;48.794;9.176;2023-03-14T11:05:48;96385.16;;;14.33;60.74
13767;BME280;47980;48.794;9.176;2023-03-14T11:08:27;96381.63;;;14.47;61.34
13767;BME280;47980;48.794;9.176;2023-03-14T11:11:09;96402.31;;;14.32;61.51
13767;BME280;47980;48.794;9.176;2023-03-14T11:13:55;96408.34;;;14.43;63.00
13767;BME280;47980;48.794;9.176;2023-03-14T11:16:35;96399.66;;;14.32;63.62
13767;BME280;47980;48.794;9.176;2023-03-14T11:22:20;96418.16;;;13.94;66.73
13767;BME280;47980;48.794;9.176;2023-03-14T11:25:02;96426.28;;;13.59;69.20
13767;BME280;47980;48.794;9.176;2023-03-14T11:27:42;96397.44;;;13.04;71.65
13767;BME280;47980;48.794;9.176;2023-03-14T11:30:19;96412.63;;;13.07;72.61
13767;BME280;47980;48.794;9.176;2023-03-14T11:32:57;96414.19;;;12.93;72.47
13767;BME280;47980;48.794;9.176;2023-03-14T11:35:34;96414.53;;;12.60;74.15
13767;BME280;47980;48.794;9.176;2023-03-14T11:38:14;96413.03;;;12.55;75.67
13767;BME280;47980;48.794;9.176;2023-03-14T11:40:48;96422.91;;;12.72;76.02
13767;BME280;47980;48.794;9.176;2023-03-14T11:43:27;96417.94;;;13.10;73.45
13767;BME280;47980;48.794;9.176;2023-03-14T11:46:05;96430.91;;;12.94;74.79
13767;BME280;47980;48.794;9.176;2023-03-14T11:48:43;96429.00;;;13.16;71.89
13767;BME280;47980;48.794;9.176;2023-03-14T11:51:21;96433.91;;;13.14;72.51
13767;BME280;47980;48.794;9.176;2023-03-14T11:53:59;96424.41;;;13.20;72.54
13767;BME280;47980;48.794;9.176;2023-03-14T11:56:37;96448.38;;;13.02;74.79
13767;BME280;47980;48.794;9.176;2023-03-14T11:59:15;96451.81;;;12.85;76.03
13767;BME280;47980;48.794;9.176;2023-03-14T12:01:53;96458.97;;;12.45;77.84
13767;BME280;47980;48.794;9.176;2023-03-14T12:04:39;96462.81;;;12.69;75.66
13767;BME280;47980;48.794;9.176;2023-03-14T12:07:17;96463.97;;;13.14;74.42
13767;BME280;47980;48.794;9.176;2023-03-14T12:09:51;96477.66;;;12.98;72.94
13767;BME280;47980;48.794;9.176;2023-03-14T12:12:25;96460.94;;;13.48;70.16
13767;BME280;47980;48.794;9.176;2023-03-14T12:14:59;96486.41;;;13.13;72.71
13767;BME280;47980;48.794;9.176;2023-03-14T12:17:36;96497.81;;;13.07;73.23
13767;BME280;47980;48.794;9.176;2023-03-14T12:20:16;96514.19;;;13.12;74.75
13767;BME280;47980;48.794;9.176;2023-03-14T12:22:50;96498.59;;;13.00;75.10
13767;BME280;47980;48.794;9.176;2023-03-14T12:25:25;96524.41;;;12.85;73.02
13767;BME280;47980;48.794;9.176;2023-03-14T12:28:16;96538.16;;;13.69;70.72
13767;BME280;47980;48.794;9.176;2023-03-14T12:30:48;96549.59;;;13.66;67.02
13767;BME280;47980;48.794;9.176;2023-03-14T12:33:29;96555.28;;;13.54;66.05
13767;BME280;47980;48.794;9.176;2023-03-14T12:36:30;96585.63;;;12.85;66.81
13767;BME280;47980;48.794;9.176;2023-03-14T12:39:29;96584.16;;;13.02;63.62
13767;BME280;47980;48.794;9.176;2023-03-14T12:42:05;96596.03;;;13.37;62.59
13767;BME280;47980;48.794;9.176;2023-03-14T12:44:45;96604.34;;;13.21;61.26
13767;BME280;47980;48.794;9.176;2023-03-14T12:47:41;96604.94;;;12.61;59.18
13767;BME280;47980;48.794;9.176;2023-03-14T12:50:25;96623.03;;;12.30;58.21
13767;BME280;47980;48.794;9.176;2023-03-14T12:53:20;96609.72;;;12.26;55.85
13767;BME280;47980;48.794;9.176;2023-03-14T12:56:03;96625.25;;;12.14;56.58
13767;BME280;47980;48.794;9.176;2023-03-14T12:58:39;96633.75;;;12.44;54.71
13767;BME280;47980;48.794;9.176;2023-03-14T13:01:16;96653.88;;;12.45;54.47
13767;BME280;47980;48.794;9.176;2023-03-14T13:03:51;96668.47;;;12.76;54.80
13767;BME280;47980;48.794;9.176;2023-03-14T13:06:52;96680.69;;;12.88;53.29
13767;BME280;47980;48.794;9.176;2023-03-14T13:09:51;96701.25;;;11.77;55.60
13767;BME280;47980;48.794;9.176;2023-03-14T13:12:30;96703.63;;;11.86;54.63
13767;BME280;47980;48.794;9.176;2023-03-14T13:15:16;96716.16;;;11.48;53.42
13767;BME280;47980;48.794;9.176;2023-03-14T13:17:51;96720.59;;;11.37;54.48
13767;BME280;47980;48.794;9.176;2023-03-14T13:20:28;96738.53;;;11.51;53.57
13767;BME280;47980;48.794;9.176;2023-03-14T13:23:02;96756.03;;;11.52;53.03
13767;BME280;47980;48.794;9.176;2023-03-14T13:25:35;96748.28;;;11.73;54.72
13767;BME280;47980;48.794;9.176;2023-03-14T13:28:09;96771.47;;;11.80;52.78
13767;BME280;47980;48.794;9.176;2023-03-14T13:30:43;96785.31;;;11.59;50.76
13767;BME280;47980;48.794;9.176;2023-03-14T13:33:16;96802.59;;;11.79;53.57
13767;BME280;47980;48.794;9.176;2023-03-14T13:35:53;96817.88;;;11.52;53.06
13767;BME280;47980;48.794;9.176;2023-03-14T13:38:29;96811.38;;;11.50;51.61
13767;BME280;47980;48.794;9.176;2023-03-14T13:41:04;96816.66;;;11.46;51.37
13767;BME280;47980;48.794;9.176;2023-03-14T13:43:40;96837.13;;;11.46;52.04
13767;BME280;47980;48.794;9.176;2023-03-14T13:46:13;96832.88;;;11.71;51.59